Latest Weather Observations for King Island Airport

IDT60801

Issued at 6:02 pm EST Wednesday 26 April 2017 (issued every 30 minutes, with the page automatically refreshed every 10 minutes)

About weather observations | Map of weather stations | Latest weather observations for TAS | Other Formats
Station Details ID: 098017 Name: KING ISLAND AIRPORT Lat: -39.88 Lon: 143.88 Height: 37.0 m
Data from the previous 72 hours. | See also: Recent months at King Island Airport
Date/Time
EST
Temp
°C
App
Temp
°C
Dew
Point
°C
Rel
Hum
%
Delta-T
°C
Wind Press
QNH
hPa
Press
MSL
hPa
Rain since
9am
mm
Dir  Spd
km/h
Gust
km/h
Spd
kts
Gust
kts
26/06:00pm 10.5 2.8 2.1 56 3.6 SSW 32 41 17 22 1017.2 1017.2 0.8
26/05:30pm 10.5 3.4 3.5 62 3.1 SSW 30 43 16 23 1016.8 1016.8 0.8
26/05:00pm 10.7 3.1 3.7 62 3.1 SSW 33 44 18 24 1016.5 1016.5 0.8
26/04:30pm 10.1 4.3 4.5 68 2.5 SW 24 37 13 20 1016.0 1016.0 0.8
26/04:03pm 10.9 1.9 2.2 55 3.7 SSW 39 57 21 31 1015.9 1015.9 0.8
26/04:00pm 10.7 1.2 2.0 55 3.7 SSW 41 54 22 29 1015.8 1015.8 0.8
26/03:45pm 10.8 3.2 3.1 59 3.4 S 32 50 17 27 1015.5 1015.5 0.8
26/03:30pm 12.0 3.0 2.7 53 4.1 SSW 39 52 21 28 1015.2 1015.2 0.8
26/03:22pm 12.1 4.4 3.3 55 3.9 SSW 33 52 18 28 1015.1 1015.1 0.8
26/03:00pm 12.0 3.2 1.6 49 4.4 SSW 37 48 20 26 1014.8 1014.7 0.8
26/02:30pm 11.5 2.6 2.8 55 3.8 SSW 39 52 21 28 1014.6 1014.5 0.8
26/02:01pm 11.4 2.9 3.2 57 3.6 SW 37 56 20 30 1014.4 1014.3 0.8
26/02:00pm 11.4 2.9 3.4 58 3.5 SW 37 54 20 29 1014.3 1014.2 0.8
26/01:32pm 10.3 0.5 3.6 63 2.9 SSW 44 63 24 34 1014.4 1014.3 0.8
26/01:30pm 10.5 0.7 5.1 69 2.5 SSW 46 63 25 34 1014.4 1014.3 0.8
26/01:20pm 10.1 3.7 5.3 72 2.2 SSW 28 57 15 31 1014.3 1014.2 0.8
26/01:00pm 8.9 1.7 5.1 77 1.7 SSW 32 48 17 26 1014.6 1014.5 0.4
26/12:53pm 10.1 3.8 5.9 75 1.9 S 28 48 15 26 1014.4 1014.3 0.4
26/12:45pm 9.4 2.6 5.0 74 2.0 SSW 30 39 16 21 1014.1 1014.0 0.4
26/12:30pm 8.2 -1.4 3.3 71 2.1 SW 43 61 23 33 1014.2 1014.1 0.4
26/12:01pm 11.0 2.6 1.8 53 3.9 SSW 35 54 19 29 1013.8 1013.7 0.0
26/12:00pm 11.1 2.3 1.4 51 4.1 SSW 37 54 20 29 1013.8 1013.7 0.0
26/11:52am 11.8 3.1 2.3 52 4.1 SSW 37 56 20 30 1013.8 1013.7 0.0
26/11:30am 12.0 3.1 0.8 46 4.7 SSW 37 54 20 29 1013.7 1013.6 0.0
26/11:24am 12.7 3.9 1.4 46 4.8 SSW 37 56 20 30 1013.6 1013.5 0.0
26/11:00am 11.8 1.5 2.5 53 4.0 SSW 46 57 25 31 1013.2 1013.1 0.0
26/10:30am 11.4 2.6 1.4 50 4.2 SSW 37 52 20 28 1012.9 1012.8 0.0
26/10:00am 11.1 2.7 1.4 51 4.1 SW 35 54 19 29 1012.6 1012.5 0.0
26/09:30am 11.4 2.0 2.4 54 3.9 SSW 41 54 22 29 1012.5 1012.4 0.0
26/09:01am 10.6 0.8 2.4 57 3.5 SSW 43 61 23 33 1012.1 1012.0 0.0
26/09:00am 10.5 0.6 2.8 59 3.3 SSW 44 61 24 33 1012.1 1012.0 11.0
26/08:30am 10.2 0.7 3.7 64 2.9 SSW 43 63 23 34 1011.4 1011.3 11.0
26/08:00am 10.9 1.4 3.7 61 3.2 SSW 43 61 23 33 1010.8 1010.7 11.0
26/07:55am 11.2 1.9 2.8 56 3.6 SSW 41 59 22 32 1010.6 1010.5 11.0
26/07:30am 10.7 1.3 2.5 57 3.5 SSW 41 57 22 31 1009.8 1009.8 10.8
26/07:10am 10.7 0.8 2.5 57 3.5 SSW 44 63 24 34 1009.3 1009.3 10.8
26/07:00am 10.5 0.2 2.6 58 3.4 SSW 46 61 25 33 1009.0 1009.0 10.8
26/06:31am 11.0 2.0 2.3 55 3.7 SSW 39 57 21 31 1008.3 1008.3 10.8
26/06:30am 10.9 2.3 2.5 56 3.6 SSW 37 52 20 28 1008.3 1008.3 10.8
26/06:00am 11.0 1.3 3.1 58 3.5 SSW 43 57 23 31 1007.7 1007.7 10.8
26/05:32am 11.2 3.2 4.0 61 3.2 SSW 35 54 19 29 1006.8 1006.8 10.8
26/05:30am 11.0 3.1 4.2 63 3.0 SSW 35 50 19 27 1006.8 1006.8 10.8
26/05:08am 11.1 2.5 4.8 65 2.9 SSW 39 57 21 31 1006.4 1006.4 10.8
26/05:00am 11.1 0.8 4.8 65 2.9 SSW 48 63 26 34 1006.1 1006.1 10.8
26/04:40am 11.1 2.8 6.3 72 2.3 SSW 39 57 21 31 1005.8 1005.8 10.8
26/04:30am 11.3 2.5 5.4 67 2.7 SSW 41 52 22 28 1005.4 1005.4 10.8
26/04:00am 11.1 3.5 5.6 69 2.6 SSW 35 52 19 28 1005.0 1005.0 10.8
26/03:57am 11.0 3.9 5.3 68 2.6 SSW 32 52 17 28 1004.9 1004.9 10.8
26/03:30am 10.4 1.2 6.5 77 1.8 SSW 44 59 24 32 1004.3 1004.3 10.8
26/03:00am 10.8 4.1 7.5 80 1.6 SSW 32 44 17 24 1003.9 1003.9 10.8
26/02:30am 10.2 3.8 6.9 80 1.6 SSW 30 41 16 22 1003.7 1003.7 10.8
26/02:00am 9.9 3.3 7.7 86 1.1 SSW 32 43 17 23 1003.8 1003.8 10.8
26/01:45am 9.8 3.1 8.1 89 0.8 SW 33 43 18 23 1004.1 1004.1 10.6
26/01:30am 9.1 0.2 7.7 91 0.7 SW 44 65 24 35 1004.0 1004.0 9.8
26/01:15am 9.6 0.9 7.9 89 0.8 SW 43 74 23 40 1003.6 1003.6 8.4
26/01:14am 10.2 2.1 8.8 91 0.7 SW 41 74 22 40 1003.6 1003.6 8.2
26/01:00am 11.0 4.1 8.8 86 1.1 SSW 35 46 19 25 1003.1 1003.1 7.2
26/12:32am 10.3 4.3 8.7 90 0.8 SSW 30 43 16 23 1002.9 1002.9 7.0
26/12:30am 10.3 3.9 8.6 89 0.8 SSW 32 43 17 23 1003.0 1003.0 6.8
26/12:19am 10.1 2.4 8.5 90 0.8 SW 39 59 21 32 1003.0 1003.0 6.4
26/12:17am 10.3 3.1 9.1 92 0.6 SW 37 59 20 32 1003.0 1003.0 6.4
26/12:06am 11.0 5.6 9.6 91 0.7 SW 28 48 15 26 1002.8 1002.8 5.6
26/12:02am 11.1 5.3 9.4 89 0.9 SSW 30 37 16 20 1002.7 1002.7 5.4
26/12:00am 11.2 5.4 9.3 88 1.0 SSW 30 46 16 25 1002.7 1002.7 5.0
 
Date/Time
EST
Temp
°C
App
Temp
°C
Dew
Point
°C
Rel
Hum
%
Delta-T
°C
Wind Press
QNH
hPa
Press
MSL
hPa
Rain since
9am
mm
Dir  Spd
km/h
Gust
km/h
Spd
kts
Gust
kts
25/11:30pm 12.3 5.5 9.3 82 1.5 SSW 35 46 19 25 1002.2 1002.2 4.6
25/11:00pm 12.8 6.8 10.2 84 1.3 SSW 32 41 17 22 1002.1 1002.1 4.6
25/10:30pm 12.9 6.8 10.3 84 1.3 SW 33 43 18 23 1002.1 1002.1 4.6
25/10:00pm 13.5 8.4 11.9 90 0.9 WNW 30 37 16 20 1001.8 1001.8 4.6
25/09:52pm 13.3 9.4 12.0 92 0.7 WNW 24 35 13 19 1002.1 1002.1 4.4
25/09:34pm 13.4 7.8 12.0 91 0.8 WNW 33 50 18 27 1002.4 1002.4 3.8
25/09:30pm 13.9 8.6 12.5 91 0.8 NW 32 39 17 21 1002.3 1002.3 3.2
25/09:26pm 14.3 9.1 12.7 90 0.9 NW 32 39 17 21 1002.2 1002.2 3.2
25/09:00pm 13.8 9.3 12.5 92 0.7 NW 28 33 15 18 1002.5 1002.5 3.0
25/08:45pm 13.5 9.0 12.7 95 0.4 NW 28 33 15 18 1002.9 1002.9 3.0
25/08:30pm 13.3 8.4 12.5 95 0.4 WNW 30 37 16 20 1003.0 1003.0 3.0
25/08:00pm 13.2 8.3 12.4 95 0.4 W 30 43 16 23 1003.4 1003.4 2.4
25/07:30pm 13.1 7.5 11.5 90 0.9 WNW 32 43 17 23 1003.2 1003.2 1.6
25/07:00pm 14.3 8.7 12.2 87 1.1 WNW 33 54 18 29 1003.2 1003.2 1.2
25/06:56pm 14.0 9.2 11.7 86 1.2 WNW 28 46 15 25 1003.1 1003.1 1.2
25/06:30pm 13.7 7.9 11.6 87 1.1 NW 33 46 18 25 1003.4 1003.4 0.2
25/06:00pm 15.0 10.4 11.2 78 2.0 WNW 26 32 14 17 1003.6 1003.6 0.0
25/05:30pm 14.7 9.6 10.5 76 2.2 WNW 28 35 15 19 1003.9 1003.9 0.0
25/05:00pm 15.2 10.6 11.2 77 2.1 WNW 26 33 14 18 1004.3 1004.3 0.0
25/04:30pm 15.3 10.2 10.5 73 2.5 WNW 28 37 15 20 1004.5 1004.5 0.0
25/04:00pm 16.3 12.3 10.4 68 3.1 WNW 22 33 12 18 1004.4 1004.4 0.0
25/03:30pm 16.4 11.5 9.8 65 3.5 WNW 26 35 14 19 1004.6 1004.6 0.0
25/03:00pm 16.0 10.7 9.9 67 3.2 WNW 28 35 15 19 1004.9 1004.9 0.0
25/02:30pm 16.3 11.5 10.2 67 3.2 W 26 35 14 19 1005.3 1005.3 0.0
25/02:00pm 16.6 11.9 10.7 68 3.2 W 26 33 14 18 1005.6 1005.6 0.0
25/01:30pm 16.0 11.6 10.5 70 2.9 WSW 24 35 13 19 1005.9 1005.9 0.0
25/01:00pm 15.8 10.9 10.1 69 3.0 WSW 26 37 14 20 1006.3 1006.3 0.0
25/12:30pm 16.3 11.5 11.5 73 2.6 WSW 28 37 15 20 1006.6 1006.6 0.0
25/12:00pm 16.3 12.1 12.5 78 2.1 W 26 33 14 18 1007.0 1007.0 0.0
25/11:30am 16.5 12.9 11.9 74 2.5 W 22 32 12 17 1007.4 1007.4 0.0
25/11:00am 15.7 12.3 11.1 74 2.5 WSW 20 30 11 16 1007.8 1007.8 0.0
25/10:30am 15.7 12.6 11.7 77 2.2 WSW 19 28 10 15 1008.0 1008.0 0.0
25/10:00am 15.7 12.6 12.3 80 1.9 WSW 20 28 11 15 1008.2 1008.2 0.0
25/09:30am 14.9 12.2 11.7 81 1.7 SW 17 22 9 12 1007.9 1007.9 0.0
25/09:00am 15.3 12.6 11.7 79 1.9 SW 17 20 9 11 1008.1 1008.1 4.2
25/08:30am 14.5 12.9 12.7 89 1.0 SSW 13 19 7 10 1008.1 1008.1 4.2
25/08:00am 13.3 12.3 12.2 93 0.6 SSW 9 11 5 6 1007.9 1007.9 4.2
25/07:30am 13.4 12.5 12.5 94 0.5 SSW 9 11 5 6 1007.7 1007.7 4.2
25/07:00am 13.4 12.6 12.8 96 0.3 SSW 9 13 5 7 1007.5 1007.5 4.2
25/06:30am 13.7 12.2 13.2 97 0.3 SSW 13 15 7 8 1007.7 1007.7 4.2
25/06:00am 13.6 12.6 13.4 99 0.1 SSW 11 13 6 7 1007.8 1007.8 4.2
25/05:30am 13.8 13.2 13.6 99 0.1 S 9 13 5 7 1007.8 1007.8 4.2
25/05:00am 13.9 13.1 13.9 100 0.0 SSW 11 15 6 8 1008.0 1008.0 4.0
25/04:30am 14.1 14.3 14.1 100 0.0 SSW 6 7 3 4 1007.9 1007.9 4.0
25/04:25am 14.1 14.1 14.1 100 0.0 SSW 7 7 4 4 1007.9 1007.9 4.0
25/04:17am 14.1 14.1 14.1 100 0.0 SSW 7 9 4 5 1007.8 1007.8 4.0
25/04:12am 14.2 13.8 14.2 100 0.0 SSW 9 9 5 5 1007.9 1007.9 4.0
25/04:00am 14.1 14.1 14.1 100 0.0 S 7 9 4 5 1008.0 1008.0 3.8
25/03:59am 14.1 14.1 14.1 100 0.0 S 7 9 4 5 1008.0 1008.0 3.8
25/03:30am 14.0 13.9 14.0 100 0.0 SSE 7 7 4 4 1008.3 1008.3 3.6
25/03:00am 14.2 13.8 14.2 100 0.0 SSW 9 9 5 5 1008.7 1008.7 3.6
25/02:50am 14.2 14.2 14.2 100 0.0 SSW 7 9 4 5 1008.9 1008.9 3.6
25/02:30am 14.2 13.8 14.2 100 0.0 SSW 9 9 5 5 1009.2 1009.2 3.6
25/02:04am 14.2 13.8 14.2 100 0.0 SSW 9 11 5 6 1009.5 1009.5 3.2
25/02:00am 14.2 13.8 14.2 100 0.0 S 9 11 5 6 1009.6 1009.6 3.2
25/01:30am 14.3 14.3 14.3 100 0.0 S 7 11 4 6 1010.1 1010.0 3.2
25/01:00am 14.2 13.8 14.2 100 0.0 SSW 9 13 5 7 1010.3 1010.2 3.2
25/12:57am 14.2 14.2 14.2 100 0.0 SSW 7 13 4 7 1010.3 1010.2 3.2
25/12:30am 14.1 12.9 14.1 100 0.0 ESE 13 15 7 8 1010.2 1010.1 3.0
25/12:00am 14.0 13.6 14.0 100 0.0 ESE 9 13 5 7 1010.6 1010.5 3.0
 
Date/Time
EST
Temp
°C
App
Temp
°C
Dew
Point
°C
Rel
Hum
%
Delta-T
°C
Wind Press
QNH
hPa
Press
MSL
hPa
Rain since
9am
mm
Dir  Spd
km/h
Gust
km/h
Spd
kts
Gust
kts
24/11:30pm 13.9 12.3 13.9 100 0.0 E 15 19 8 10 1011.0 1010.9 3.0
24/11:00pm 13.7 11.6 13.5 99 0.1 E 17 19 9 10 1011.5 1011.4 2.8
24/10:30pm 13.7 12.0 13.5 99 0.1 E 15 20 8 11 1012.3 1012.2 2.8
24/10:00pm 13.6 12.2 13.4 99 0.1 ESE 13 19 7 10 1012.7 1012.6 2.6
24/09:30pm 13.7 13.0 13.2 97 0.3 E 9 11 5 6 1013.5 1013.4 1.8
24/09:14pm 13.9 13.3 13.4 97 0.3 SSE 9 11 5 6 1013.9 1013.8 1.4
24/09:00pm 14.0 13.7 13.4 96 0.3 SSE 7 9 4 5 1014.1 1014.0 1.0
24/08:57pm 14.1 14.0 13.3 95 0.4 SSE 6 9 3 5 1014.1 1014.0 0.8
24/08:30pm 14.1 15.1 13.1 94 0.6 CALM 0 0 0 0 1014.4 1014.3 0.0
24/08:00pm 14.2 14.8 13.1 93 0.6 SE 2 6 1 3 1014.7 1014.6 0.0
24/07:30pm 14.4 14.0 13.0 91 0.8 SSE 7 9 4 5 1015.1 1015.1 0.0
24/07:00pm 14.6 13.8 12.8 89 1.0 SW 9 11 5 6 1015.0 1014.9 0.0
24/06:30pm 14.8 14.4 13.0 89 1.0 SSW 7 7 4 4 1014.7 1014.6 0.0
24/06:00pm 14.9 14.5 13.1 89 1.0 SW 7 9 4 5 1014.8 1014.7 0.0
24/05:30pm 15.2 14.8 13.1 87 1.2 S 7 9 4 5 1014.5 1014.4 0.0
24/05:00pm 15.7 14.9 13.0 84 1.5 SSW 9 11 5 6 1014.7 1014.6 0.0
24/04:30pm 15.9 15.4 12.8 82 1.7 SW 7 9 4 5 1015.0 1014.9 0.0
24/04:00pm 16.0 15.1 12.6 80 1.9 WSW 9 11 5 6 1015.5 1015.5 0.0
24/03:30pm 16.4 15.4 12.4 77 2.2 W 9 11 5 6 1015.8 1015.8 0.0
24/03:00pm 16.5 17.2 12.1 75 2.4 CALM 0 2 0 1 1016.1 1016.1 0.0
24/02:30pm 16.3 15.4 12.7 79 2.0 SW 9 11 5 6 1016.2 1016.2 0.0
24/02:00pm 16.4 15.5 12.6 78 2.1 WSW 9 11 5 6 1016.5 1016.5 0.0
24/01:30pm 16.7 15.2 13.2 80 2.0 SW 13 15 7 8 1016.8 1016.8 0.0
24/01:00pm 16.3 15.4 12.7 79 2.0 W 9 11 5 6 1017.4 1017.4 0.0
24/12:30pm 16.4 15.5 12.6 78 2.1 WSW 9 11 5 6 1017.7 1017.7 0.0
24/12:00pm 17.1 15.9 12.8 76 2.4 W 11 15 6 8 1018.3 1018.3 0.0
24/11:30am 17.4 17.1 13.3 77 2.3 WSW 7 11 4 6 1018.8 1018.8 0.0
24/11:00am 16.7 16.3 13.0 79 2.1 W 7 11 4 6 1019.0 1019.0 0.0
24/10:30am 16.7 16.0 13.2 80 2.0 WSW 9 13 5 7 1019.5 1019.5 0.0
24/10:12am 16.4 15.7 13.1 81 1.8 SW 9 9 5 5 1019.6 1019.6 0.0
24/10:00am 16.5 16.8 13.4 82 1.7 WNW 4 9 2 5 1019.7 1019.7 0.0
24/09:30am 16.2 16.3 14.0 87 1.2 W 6 11 3 6 1019.9 1019.9 0.0
24/09:09am 15.4 15.5 13.9 91 0.8 ENE 6 13 3 7 1020.3 1020.3 0.0
24/09:00am 15.3 15.3 13.7 90 0.9 SSE 6 11 3 6 1020.0 1020.0 0.0
24/08:30am 14.8 15.5 14.6 99 0.1 WSW 4 9 2 5 1020.2 1020.2 0.0
24/08:00am 12.8 13.7 12.8 100 0.0 CALM 0 0 0 0 1020.1 1020.1 0.0
24/07:30am 11.0 11.3 10.8 99 0.1 CALM 0 4 0 2 1020.3 1020.3 0.0
24/07:05am 12.5 13.3 12.5 100 0.0 CALM 0 0 0 0 1020.2 1020.2 0.0
24/07:00am 12.4 13.2 12.4 100 0.0 CALM 0 0 0 0 1020.2 1020.2 0.0
24/06:30am 11.7 12.1 11.4 98 0.2 CALM 0 0 0 0 1020.7 1020.7 0.0
24/06:28am 11.6 12.0 11.3 98 0.2 CALM 0 0 0 0 1020.7 1020.7 0.0
24/06:18am 11.9 12.3 11.4 97 0.3 CALM 0 0 0 0 1020.6 1020.6 0.0
24/06:00am 12.9 12.3 12.4 97 0.3 SSW 7 9 4 5 1020.5 1020.5 0.0
24/05:30am 13.6 13.2 13.1 97 0.3 SW 7 9 4 5 1020.6 1020.6 0.0
24/05:00am 14.0 13.4 13.5 97 0.3 W 9 9 5 5 1020.9 1020.9 0.0
24/04:49am 14.0 13.8 13.7 98 0.2 W 7 9 4 5 1021.0 1021.0 0.0
24/04:30am 13.8 13.2 13.5 98 0.2 W 9 9 5 5 1021.1 1021.1 0.0
24/04:00am 13.3 13.9 13.0 98 0.2 N 2 6 1 3 1021.2 1021.2 0.0
24/03:31am 12.7 12.1 12.4 98 0.2 NE 7 9 4 5 1021.3 1021.3 0.0
24/03:30am 12.8 12.4 12.5 98 0.2 NE 6 9 3 5 1021.3 1021.3 0.0
24/03:00am 13.1 14.0 12.8 98 0.2 CALM 0 0 0 0 1021.5 1021.5 0.0
24/02:30am 13.5 14.4 13.0 97 0.3 CALM 0 0 0 0 1021.7 1021.7 0.0
24/02:00am 13.6 14.6 13.1 97 0.3 CALM 0 0 0 0 1022.0 1022.0 0.0
24/01:33am 13.3 13.0 12.7 96 0.3 SE 6 7 3 4 1022.1 1022.1 0.0
24/01:30am 13.2 12.7 12.6 96 0.3 SSE 7 7 4 4 1022.0 1022.0 0.0
24/01:13am 13.9 14.1 13.1 95 0.4 SW 4 9 2 5 1022.1 1022.1 0.0
24/01:00am 14.1 13.4 13.3 95 0.4 WSW 9 9 5 5 1022.1 1022.1 0.0
24/12:30am 14.0 13.3 13.2 95 0.4 SSE 9 13 5 7 1022.1 1022.1 0.0
24/12:00am 14.0 12.9 13.2 95 0.4 S 11 15 6 8 1022.4 1022.4 0.0
 
Date/Time
EST
Temp
°C
App
Temp
°C
Dew
Point
°C
Rel
Hum
%
Delta-T
°C
Wind Press
QNH
hPa
Press
MSL
hPa
Rain since
9am
mm
Dir  Spd
km/h
Gust
km/h
Spd
kts
Gust
kts
23/11:30pm 14.2 12.3 13.1 93 0.6 SSW 15 19 8 10 1022.6 1022.6 0.0
23/11:00pm 14.0 12.5 13.1 94 0.5 S 13 17 7 9 1022.8 1022.8 0.0
23/10:30pm 14.0 12.8 12.9 93 0.6 S 11 15 6 8 1023.2 1023.2 0.0
23/10:00pm 14.0 12.8 12.7 92 0.7 SSW 11 13 6 7 1023.5 1023.5 0.0
23/09:30pm 14.0 13.1 12.7 92 0.7 S 9 15 5 8 1023.6 1023.6 0.0
23/09:00pm 13.9 13.0 12.6 92 0.7 S 9 15 5 8 1023.6 1023.6 0.0
23/08:30pm 14.2 13.3 12.6 90 0.9 S 9 13 5 7 1023.9 1023.9 0.0
23/08:00pm 14.2 13.3 12.6 90 0.9 S 9 15 5 8 1023.9 1023.9 0.0
23/07:30pm 14.4 13.2 12.8 90 0.9 S 11 15 6 8 1023.9 1023.9 0.0
23/07:00pm 14.6 13.0 12.8 89 1.0 S 13 20 7 11 1023.9 1023.9 0.0
23/06:30pm 14.8 13.2 12.8 88 1.1 S 13 19 7 10 1023.8 1023.8 0.0

Other Formats:

Comma delimited format used in spreadsheet applications
http://www.bom.gov.au/fwo/IDT60801/IDT60801.94850.axf

JavaScript Object Notation format (JSON) in row-major order
http://www.bom.gov.au/fwo/IDT60801/IDT60801.94850.json